sensor_id;sensor_type;location;lat;lon;timestamp;P1;durP1;ratioP1;P2;durP2;ratioP2
11100;SDS011;5604;50.722;7.078;2023-03-23T00:00:14;2.20;;;1.70;;
11100;SDS011;5604;50.722;7.078;2023-03-23T00:02:45;1.50;;;1.40;;
11100;SDS011;5604;50.722;7.078;2023-03-23T00:05:12;2.20;;;1.50;;
11100;SDS011;5604;50.722;7.078;2023-03-23T00:07:39;1.53;;;1.43;;
11100;SDS011;5604;50.722;7.078;2023-03-23T00:10:10;4.53;;;1.57;;
11100;SDS011;5604;50.722;7.078;2023-03-23T00:12:39;3.07;;;1.60;;
11100;SDS011;5604;50.722;7.078;2023-03-23T00:15:08;2.63;;;1.63;;
11100;SDS011;5604;50.722;7.078;2023-03-23T00:17:38;2.20;;;1.70;;
11100;SDS011;5604;50.722;7.078;2023-03-23T00:20:06;1.47;;;1.33;;
11100;SDS011;5604;50.722;7.078;2023-03-23T00:22:35;1.40;;;1.30;;
11100;SDS011;5604;50.722;7.078;2023-03-23T00:25:03;1.50;;;1.40;;
11100;SDS011;5604;50.722;7.078;2023-03-23T00:27:31;1.87;;;1.73;;
11100;SDS011;5604;50.722;7.078;2023-03-23T00:29:59;3.63;;;2.07;;
11100;SDS011;5604;50.722;7.078;2023-03-23T00:32:26;4.10;;;1.60;;
11100;SDS011;5604;50.722;7.078;2023-03-23T00:34:54;2.43;;;1.40;;
11100;SDS011;5604;50.722;7.078;2023-03-23T00:37:21;3.40;;;2.60;;
11100;SDS011;5604;50.722;7.078;2023-03-23T00:39:49;2.93;;;1.77;;
11100;SDS011;5604;50.722;7.078;2023-03-23T00:42:17;1.33;;;1.20;;
11100;SDS011;5604;50.722;7.078;2023-03-23T00:44:44;2.60;;;1.83;;
11100;SDS011;5604;50.722;7.078;2023-03-23T00:47:12;1.83;;;1.50;;
11100;SDS011;5604;50.722;7.078;2023-03-23T00:49:40;1.40;;;1.30;;
11100;SDS011;5604;50.722;7.078;2023-03-23T00:52:07;1.60;;;1.47;;
11100;SDS011;5604;50.722;7.078;2023-03-23T00:54:34;2.10;;;1.50;;
11100;SDS011;5604;50.722;7.078;2023-03-23T00:57:03;3.23;;;1.70;;
11100;SDS011;5604;50.722;7.078;2023-03-23T00:59:33;1.33;;;1.23;;
11100;SDS011;5604;50.722;7.078;2023-03-23T01:02:00;2.20;;;1.50;;
11100;SDS011;5604;50.722;7.078;2023-03-23T01:04:28;1.30;;;1.20;;
11100;SDS011;5604;50.722;7.078;2023-03-23T01:06:57;2.50;;;1.40;;
11100;SDS011;5604;50.722;7.078;2023-03-23T01:09:26;2.87;;;1.70;;
11100;SDS011;5604;50.722;7.078;2023-03-23T01:11:53;1.33;;;1.17;;
11100;SDS011;5604;50.722;7.078;2023-03-23T01:14:21;1.60;;;1.40;;
11100;SDS011;5604;50.722;7.078;2023-03-23T01:16:49;1.63;;;1.50;;
11100;SDS011;5604;50.722;7.078;2023-03-23T01:19:16;2.10;;;1.27;;
11100;SDS011;5604;50.722;7.078;2023-03-23T01:21:44;1.93;;;1.70;;
11100;SDS011;5604;50.722;7.078;2023-03-23T01:24:11;1.90;;;1.50;;
11100;SDS011;5604;50.722;7.078;2023-03-23T01:26:38;1.43;;;1.33;;
11100;SDS011;5604;50.722;7.078;2023-03-23T01:29:05;4.17;;;1.50;;
11100;SDS011;5604;50.722;7.078;2023-03-23T01:31:34;1.80;;;1.40;;
11100;SDS011;5604;50.722;7.078;2023-03-23T01:34:05;1.70;;;1.60;;
11100;SDS011;5604;50.722;7.078;2023-03-23T01:36:33;1.80;;;1.53;;
11100;SDS011;5604;50.722;7.078;2023-03-23T01:39:03;1.97;;;1.50;;
11100;SDS011;5604;50.722;7.078;2023-03-23T01:41:32;2.63;;;1.60;;
11100;SDS011;5604;50.722;7.078;2023-03-23T01:44:07;1.57;;;1.43;;
11100;SDS011;5604;50.722;7.078;2023-03-23T01:46:59;2.73;;;1.60;;
11100;SDS011;5604;50.722;7.078;2023-03-23T01:49:27;1.67;;;1.53;;
11100;SDS011;5604;50.722;7.078;2023-03-23T01:51:57;1.53;;;1.40;;
11100;SDS011;5604;50.722;7.078;2023-03-23T01:54:28;1.40;;;1.30;;
11100;SDS011;5604;50.722;7.078;2023-03-23T01:56:57;1.73;;;1.57;;
11100;SDS011;5604;50.722;7.078;2023-03-23T01:59:29;1.50;;;1.37;;
11100;SDS011;5604;50.722;7.078;2023-03-23T02:02:14;1.77;;;1.40;;
11100;SDS011;5604;50.722;7.078;2023-03-23T02:04:42;1.60;;;1.50;;
11100;SDS011;5604;50.722;7.078;2023-03-23T02:07:10;2.43;;;1.57;;
11100;SDS011;5604;50.722;7.078;2023-03-23T02:09:39;2.33;;;2.13;;
11100;SDS011;5604;50.722;7.078;2023-03-23T02:12:06;1.67;;;1.50;;
11100;SDS011;5604;50.722;7.078;2023-03-23T02:14:35;2.67;;;1.63;;
11100;SDS011;5604;50.722;7.078;2023-03-23T02:17:04;2.60;;;1.60;;
11100;SDS011;5604;50.722;7.078;2023-03-23T02:19:39;2.63;;;1.60;;
11100;SDS011;5604;50.722;7.078;2023-03-23T02:22:38;2.67;;;1.80;;
11100;SDS011;5604;50.722;7.078;2023-03-23T02:25:19;1.37;;;1.27;;
11100;SDS011;5604;50.722;7.078;2023-03-23T02:28:04;1.47;;;1.30;;
11100;SDS011;5604;50.722;7.078;2023-03-23T02:30:48;2.77;;;1.60;;
11100;SDS011;5604;50.722;7.078;2023-03-23T02:33:27;1.50;;;1.40;;
11100;SDS011;5604;50.722;7.078;2023-03-23T02:36:00;1.93;;;1.50;;
11100;SDS011;5604;50.722;7.078;2023-03-23T02:38:30;2.20;;;2.00;;
11100;SDS011;5604;50.722;7.078;2023-03-23T02:40:59;1.50;;;1.40;;
11100;SDS011;5604;50.722;7.078;2023-03-23T02:43:29;2.00;;;1.40;;
11100;SDS011;5604;50.722;7.078;2023-03-23T02:45:57;1.87;;;1.40;;
11100;SDS011;5604;50.722;7.078;2023-03-23T02:48:27;2.30;;;1.80;;
11100;SDS011;5604;50.722;7.078;2023-03-23T02:50:55;1.60;;;1.50;;
11100;SDS011;5604;50.722;7.078;2023-03-23T02:53:24;1.97;;;1.57;;
11100;SDS011;5604;50.722;7.078;2023-03-23T02:55:52;3.30;;;2.07;;
11100;SDS011;5604;50.722;7.078;2023-03-23T02:58:22;2.07;;;1.60;;
11100;SDS011;5604;50.722;7.078;2023-03-23T03:00:50;1.97;;;1.60;;
11100;SDS011;5604;50.722;7.078;2023-03-23T03:03:22;2.00;;;1.63;;
11100;SDS011;5604;50.722;7.078;2023-03-23T03:05:53;4.20;;;1.80;;
11100;SDS011;5604;50.722;7.078;2023-03-23T03:08:26;2.50;;;1.60;;
11100;SDS011;5604;50.722;7.078;2023-03-23T03:11:01;1.90;;;1.70;;
11100;SDS011;5604;50.722;7.078;2023-03-23T03:13:33;3.57;;;1.73;;
11100;SDS011;5604;50.722;7.078;2023-03-23T03:16:05;1.77;;;1.67;;
11100;SDS011;5604;50.722;7.078;2023-03-23T03:18:37;1.73;;;1.63;;
11100;SDS011;5604;50.722;7.078;2023-03-23T03:21:09;2.23;;;1.60;;
11100;SDS011;5604;50.722;7.078;2023-03-23T03:23:40;1.70;;;1.60;;
11100;SDS011;5604;50.722;7.078;2023-03-23T03:26:11;2.10;;;1.70;;
11100;SDS011;5604;50.722;7.078;2023-03-23T03:28:50;2.80;;;1.90;;
11100;SDS011;5604;50.722;7.078;2023-03-23T03:31:20;1.73;;;1.57;;
11100;SDS011;5604;50.722;7.078;2023-03-23T03:33:49;3.70;;;1.60;;
11100;SDS011;5604;50.722;7.078;2023-03-23T03:36:18;2.07;;;1.60;;
11100;SDS011;5604;50.722;7.078;2023-03-23T03:38:47;3.20;;;2.03;;
11100;SDS011;5604;50.722;7.078;2023-03-23T03:41:16;1.80;;;1.60;;
11100;SDS011;5604;50.722;7.078;2023-03-23T03:43:45;2.00;;;1.80;;
11100;SDS011;5604;50.722;7.078;2023-03-23T03:46:12;2.13;;;1.80;;
11100;SDS011;5604;50.722;7.078;2023-03-23T03:48:39;4.13;;;1.80;;
11100;SDS011;5604;50.722;7.078;2023-03-23T03:51:06;1.80;;;1.57;;
11100;SDS011;5604;50.722;7.078;2023-03-23T03:53:40;1.87;;;1.70;;
11100;SDS011;5604;50.722;7.078;2023-03-23T03:56:07;2.63;;;1.80;;
11100;SDS011;5604;50.722;7.078;2023-03-23T03:58:41;1.60;;;1.50;;
11100;SDS011;5604;50.722;7.078;2023-03-23T04:01:18;2.33;;;1.93;;
11100;SDS011;5604;50.722;7.078;2023-03-23T04:03:50;2.30;;;1.90;;
11100;SDS011;5604;50.722;7.078;2023-03-23T04:06:26;2.13;;;1.93;;
11100;SDS011;5604;50.722;7.078;2023-03-23T04:08:54;2.47;;;1.70;;
11100;SDS011;5604;50.722;7.078;2023-03-23T04:11:21;2.10;;;1.90;;
11100;SDS011;5604;50.722;7.078;2023-03-23T04:13:50;2.23;;;2.00;;
11100;SDS011;5604;50.722;7.078;2023-03-23T04:16:22;2.90;;;1.67;;
11100;SDS011;5604;50.722;7.078;2023-03-23T04:18:49;2.00;;;1.80;;
11100;SDS011;5604;50.722;7.078;2023-03-23T04:21:17;1.83;;;1.73;;
11100;SDS011;5604;50.722;7.078;2023-03-23T04:23:47;1.80;;;1.67;;
11100;SDS011;5604;50.722;7.078;2023-03-23T04:26:16;1.80;;;1.70;;
11100;SDS011;5604;50.722;7.078;2023-03-23T04:28:48;2.27;;;1.70;;
11100;SDS011;5604;50.722;7.078;2023-03-23T04:31:41;1.73;;;1.63;;
11100;SDS011;5604;50.722;7.078;2023-03-23T04:34:39;1.57;;;1.30;;
11100;SDS011;5604;50.722;7.078;2023-03-23T04:37:06;1.50;;;1.40;;
11100;SDS011;5604;50.722;7.078;2023-03-23T04:39:34;1.70;;;1.60;;
11100;SDS011;5604;50.722;7.078;2023-03-23T04:42:04;2.33;;;1.90;;
11100;SDS011;5604;50.722;7.078;2023-03-23T04:44:51;1.90;;;1.70;;
11100;SDS011;5604;50.722;7.078;2023-03-23T04:47:30;1.90;;;1.57;;
11100;SDS011;5604;50.722;7.078;2023-03-23T04:50:00;2.83;;;2.00;;
11100;SDS011;5604;50.722;7.078;2023-03-23T04:52:34;2.17;;;1.90;;
11100;SDS011;5604;50.722;7.078;2023-03-23T04:55:04;2.50;;;2.00;;
11100;SDS011;5604;50.722;7.078;2023-03-23T04:57:34;2.70;;;2.03;;
11100;SDS011;5604;50.722;7.078;2023-03-23T05:00:20;2.30;;;2.10;;
11100;SDS011;5604;50.722;7.078;2023-03-23T05:02:51;3.00;;;2.07;;
11100;SDS011;5604;50.722;7.078;2023-03-23T05:05:22;1.90;;;1.70;;
11100;SDS011;5604;50.722;7.078;2023-03-23T05:07:51;3.27;;;2.07;;
11100;SDS011;5604;50.722;7.078;2023-03-23T05:10:21;2.40;;;2.17;;
11100;SDS011;5604;50.722;7.078;2023-03-23T05:12:53;1.70;;;1.60;;
11100;SDS011;5604;50.722;7.078;2023-03-23T05:15:21;2.47;;;1.77;;
11100;SDS011;5604;50.722;7.078;2023-03-23T05:17:50;2.53;;;2.10;;
11100;SDS011;5604;50.722;7.078;2023-03-23T05:20:19;2.23;;;1.80;;
11100;SDS011;5604;50.722;7.078;2023-03-23T05:22:56;1.97;;;1.80;;
11100;SDS011;5604;50.722;7.078;2023-03-23T05:25:31;2.53;;;1.90;;
11100;SDS011;5604;50.722;7.078;2023-03-23T05:28:10;1.73;;;1.63;;
11100;SDS011;5604;50.722;7.078;2023-03-23T05:31:09;2.20;;;1.80;;
11100;SDS011;5604;50.722;7.078;2023-03-23T05:33:36;2.03;;;1.80;;
11100;SDS011;5604;50.722;7.078;2023-03-23T05:36:12;1.90;;;1.67;;
11100;SDS011;5604;50.722;7.078;2023-03-23T05:39:09;2.00;;;1.90;;
11100;SDS011;5604;50.722;7.078;2023-03-23T05:41:55;3.33;;;2.13;;
11100;SDS011;5604;50.722;7.078;2023-03-23T05:44:35;2.10;;;1.70;;
11100;SDS011;5604;50.722;7.078;2023-03-23T05:47:03;2.60;;;1.90;;
11100;SDS011;5604;50.722;7.078;2023-03-23T05:49:34;1.73;;;1.63;;
11100;SDS011;5604;50.722;7.078;2023-03-23T05:52:04;2.53;;;1.70;;
11100;SDS011;5604;50.722;7.078;2023-03-23T05:54:31;2.00;;;1.80;;
11100;SDS011;5604;50.722;7.078;2023-03-23T05:57:00;2.10;;;1.73;;
11100;SDS011;5604;50.722;7.078;2023-03-23T05:59:48;2.57;;;1.90;;
11100;SDS011;5604;50.722;7.078;2023-03-23T06:02:21;1.80;;;1.70;;
11100;SDS011;5604;50.722;7.078;2023-03-23T06:04:51;1.90;;;1.80;;
11100;SDS011;5604;50.722;7.078;2023-03-23T06:07:26;2.80;;;1.80;;
11100;SDS011;5604;50.722;7.078;2023-03-23T06:10:03;2.70;;;1.70;;
11100;SDS011;5604;50.722;7.078;2023-03-23T06:12:40;3.00;;;1.90;;
11100;SDS011;5604;50.722;7.078;2023-03-23T06:15:29;1.73;;;1.40;;
11100;SDS011;5604;50.722;7.078;2023-03-23T06:18:16;2.23;;;1.80;;
11100;SDS011;5604;50.722;7.078;2023-03-23T06:20:59;2.17;;;1.70;;
11100;SDS011;5604;50.722;7.078;2023-03-23T06:23:43;3.17;;;1.80;;
11100;SDS011;5604;50.722;7.078;2023-03-23T06:26:10;2.57;;;1.60;;
11100;SDS011;5604;50.722;7.078;2023-03-23T06:28:40;2.20;;;1.47;;
11100;SDS011;5604;50.722;7.078;2023-03-23T06:31:08;1.83;;;1.40;;
11100;SDS011;5604;50.722;7.078;2023-03-23T06:33:37;2.30;;;1.50;;
11100;SDS011;5604;50.722;7.078;2023-03-23T06:36:20;2.97;;;1.63;;
11100;SDS011;5604;50.722;7.078;2023-03-23T06:39:14;3.13;;;1.50;;
11100;SDS011;5604;50.722;7.078;2023-03-23T06:41:56;3.13;;;1.60;;
11100;SDS011;5604;50.722;7.078;2023-03-23T06:44:24;2.60;;;1.50;;
11100;SDS011;5604;50.722;7.078;2023-03-23T06:46:54;2.00;;;1.60;;
11100;SDS011;5604;50.722;7.078;2023-03-23T06:49:26;1.70;;;1.60;;
11100;SDS011;5604;50.722;7.078;2023-03-23T06:52:12;1.50;;;1.40;;
11100;SDS011;5604;50.722;7.078;2023-03-23T06:54:39;2.83;;;1.80;;
11100;SDS011;5604;50.722;7.078;2023-03-23T06:57:07;2.00;;;1.47;;
11100;SDS011;5604;50.722;7.078;2023-03-23T06:59:34;2.57;;;1.40;;
11100;SDS011;5604;50.722;7.078;2023-03-23T07:02:03;2.50;;;1.40;;
11100;SDS011;5604;50.722;7.078;2023-03-23T07:04:31;2.57;;;1.40;;
11100;SDS011;5604;50.722;7.078;2023-03-23T07:07:19;1.93;;;1.60;;
11100;SDS011;5604;50.722;7.078;2023-03-23T07:10:04;1.70;;;1.27;;
11100;SDS011;5604;50.722;7.078;2023-03-23T07:12:31;2.13;;;1.70;;
11100;SDS011;5604;50.722;7.078;2023-03-23T07:15:01;2.57;;;1.53;;
11100;SDS011;5604;50.722;7.078;2023-03-23T07:17:35;2.33;;;1.90;;
11100;SDS011;5604;50.722;7.078;2023-03-23T07:20:27;4.80;;;1.30;;
11100;SDS011;5604;50.722;7.078;2023-03-23T07:22:54;2.60;;;1.60;;
11100;SDS011;5604;50.722;7.078;2023-03-23T07:25:40;1.97;;;1.30;;
11100;SDS011;5604;50.722;7.078;2023-03-23T07:28:12;2.97;;;1.40;;
11100;SDS011;5604;50.722;7.078;2023-03-23T07:30:42;1.80;;;1.47;;
11100;SDS011;5604;50.722;7.078;2023-03-23T07:33:11;2.13;;;1.60;;
11100;SDS011;5604;50.722;7.078;2023-03-23T07:35:39;3.27;;;1.50;;
11100;SDS011;5604;50.722;7.078;2023-03-23T07:38:11;1.80;;;1.30;;
11100;SDS011;5604;50.722;7.078;2023-03-23T07:40:46;2.90;;;1.60;;
11100;SDS011;5604;50.722;7.078;2023-03-23T07:43:20;2.00;;;1.40;;
11100;SDS011;5604;50.722;7.078;2023-03-23T07:46:11;3.10;;;1.30;;
11100;SDS011;5604;50.722;7.078;2023-03-23T07:48:56;2.80;;;1.60;;
11100;SDS011;5604;50.722;7.078;2023-03-23T07:51:31;4.03;;;1.23;;
11100;SDS011;5604;50.722;7.078;2023-03-23T07:53:58;2.00;;;1.40;;
11100;SDS011;5604;50.722;7.078;2023-03-23T07:56:50;2.17;;;1.33;;
11100;SDS011;5604;50.722;7.078;2023-03-23T07:59:26;2.10;;;1.50;;
11100;SDS011;5604;50.722;7.078;2023-03-23T08:01:56;4.27;;;1.50;;
11100;SDS011;5604;50.722;7.078;2023-03-23T08:04:44;2.70;;;1.60;;
11100;SDS011;5604;50.722;7.078;2023-03-23T08:07:22;4.97;;;1.97;;
11100;SDS011;5604;50.722;7.078;2023-03-23T08:09:56;2.33;;;1.40;;
11100;SDS011;5604;50.722;7.078;2023-03-23T08:13:01;3.07;;;1.20;;
11100;SDS011;5604;50.722;7.078;2023-03-23T08:15:49;4.47;;;1.50;;
11100;SDS011;5604;50.722;7.078;2023-03-23T08:18:35;2.30;;;1.47;;
11100;SDS011;5604;50.722;7.078;2023-03-23T08:21:21;3.30;;;1.33;;
11100;SDS011;5604;50.722;7.078;2023-03-23T08:24:17;4.57;;;1.50;;
11100;SDS011;5604;50.722;7.078;2023-03-23T08:26:51;3.63;;;1.70;;
11100;SDS011;5604;50.722;7.078;2023-03-23T08:29:43;3.13;;;1.57;;
11100;SDS011;5604;50.722;7.078;2023-03-23T08:32:31;4.03;;;1.50;;
11100;SDS011;5604;50.722;7.078;2023-03-23T08:35:37;1.80;;;1.50;;
11100;SDS011;5604;50.722;7.078;2023-03-23T08:38:16;3.00;;;1.73;;
11100;SDS011;5604;50.722;7.078;2023-03-23T08:40:56;6.63;;;1.73;;
11100;SDS011;5604;50.722;7.078;2023-03-23T08:43:46;3.17;;;1.37;;
11100;SDS011;5604;50.722;7.078;2023-03-23T08:46:29;2.73;;;1.70;;
11100;SDS011;5604;50.722;7.078;2023-03-23T08:49:14;3.63;;;1.60;;
11100;SDS011;5604;50.722;7.078;2023-03-23T08:52:02;3.40;;;1.60;;
11100;SDS011;5604;50.722;7.078;2023-03-23T08:55:07;2.93;;;1.40;;
11100;SDS011;5604;50.722;7.078;2023-03-23T08:58:06;3.13;;;1.60;;
11100;SDS011;5604;50.722;7.078;2023-03-23T09:00:46;1.93;;;1.37;;
11100;SDS011;5604;50.722;7.078;2023-03-23T09:03:31;2.17;;;1.60;;
11100;SDS011;5604;50.722;7.078;2023-03-23T09:06:20;2.83;;;1.53;;
11100;SDS011;5604;50.722;7.078;2023-03-23T09:08:47;4.27;;;1.93;;
11100;SDS011;5604;50.722;7.078;2023-03-23T09:11:17;3.60;;;1.73;;
11100;SDS011;5604;50.722;7.078;2023-03-23T09:13:44;3.10;;;2.00;;
11100;SDS011;5604;50.722;7.078;2023-03-23T09:16:11;2.40;;;1.40;;
11100;SDS011;5604;50.722;7.078;2023-03-23T09:18:38;1.77;;;1.30;;
11100;SDS011;5604;50.722;7.078;2023-03-23T09:21:05;2.37;;;1.60;;
11100;SDS011;5604;50.722;7.078;2023-03-23T09:23:33;2.07;;;1.50;;
11100;SDS011;5604;50.722;7.078;2023-03-23T09:26:01;2.87;;;1.50;;
11100;SDS011;5604;50.722;7.078;2023-03-23T09:28:30;3.33;;;1.50;;
11100;SDS011;5604;50.722;7.078;2023-03-23T09:30:57;2.30;;;1.70;;
11100;SDS011;5604;50.722;7.078;2023-03-23T09:33:24;2.23;;;1.37;;
11100;SDS011;5604;50.722;7.078;2023-03-23T09:35:52;2.73;;;1.63;;
11100;SDS011;5604;50.722;7.078;2023-03-23T09:38:19;4.83;;;1.57;;
11100;SDS011;5604;50.722;7.078;2023-03-23T09:40:47;3.33;;;1.80;;
11100;SDS011;5604;50.722;7.078;2023-03-23T09:43:25;2.80;;;1.30;;
11100;SDS011;5604;50.722;7.078;2023-03-23T09:46:05;2.37;;;1.40;;
11100;SDS011;5604;50.722;7.078;2023-03-23T09:48:45;3.17;;;1.37;;
11100;SDS011;5604;50.722;7.078;2023-03-23T09:51:19;1.67;;;1.07;;
11100;SDS011;5604;50.722;7.078;2023-03-23T09:54:02;2.10;;;1.07;;
11100;SDS011;5604;50.722;7.078;2023-03-23T09:56:31;2.30;;;0.90;;
11100;SDS011;5604;50.722;7.078;2023-03-23T09:59:10;2.43;;;0.83;;
11100;SDS011;5604;50.722;7.078;2023-03-23T10:01:40;1.30;;;1.20;;
11100;SDS011;5604;50.722;7.078;2023-03-23T10:04:14;2.40;;;1.00;;
11100;SDS011;5604;50.722;7.078;2023-03-23T10:06:46;1.23;;;0.73;;
11100;SDS011;5604;50.722;7.078;2023-03-23T10:09:14;1.30;;;1.10;;
11100;SDS011;5604;50.722;7.078;2023-03-23T10:11:46;1.70;;;1.20;;
11100;SDS011;5604;50.722;7.078;2023-03-23T10:14:25;2.63;;;0.90;;
11100;SDS011;5604;50.722;7.078;2023-03-23T10:16:58;1.43;;;1.07;;
11100;SDS011;5604;50.722;7.078;2023-03-23T10:19:34;1.30;;;0.90;;
11100;SDS011;5604;50.722;7.078;2023-03-23T10:22:03;1.00;;;0.70;;
11100;SDS011;5604;50.722;7.078;2023-03-23T10:24:42;1.50;;;0.90;;
11100;SDS011;5604;50.722;7.078;2023-03-23T10:27:18;0.93;;;0.90;;
11100;SDS011;5604;50.722;7.078;2023-03-23T10:29:50;1.47;;;1.00;;
11100;SDS011;5604;50.722;7.078;2023-03-23T10:32:23;1.00;;;0.77;;
11100;SDS011;5604;50.722;7.078;2023-03-23T10:35:03;0.73;;;0.73;;
11100;SDS011;5604;50.722;7.078;2023-03-23T10:37:33;1.07;;;0.90;;
11100;SDS011;5604;50.722;7.078;2023-03-23T10:40:03;2.63;;;1.00;;
11100;SDS011;5604;50.722;7.078;2023-03-23T10:42:36;0.93;;;0.60;;
11100;SDS011;5604;50.722;7.078;2023-03-23T10:45:11;1.03;;;1.00;;
11100;SDS011;5604;50.722;7.078;2023-03-23T10:47:44;0.90;;;0.90;;
11100;SDS011;5604;50.722;7.078;2023-03-23T10:50:17;1.57;;;0.90;;
11100;SDS011;5604;50.722;7.078;2023-03-23T10:52:49;1.70;;;0.87;;
11100;SDS011;5604;50.722;7.078;2023-03-23T10:55:21;1.37;;;0.80;;
11100;SDS011;5604;50.722;7.078;2023-03-23T10:57:58;1.10;;;0.83;;
11100;SDS011;5604;50.722;7.078;2023-03-23T11:00:29;1.63;;;1.00;;
11100;SDS011;5604;50.722;7.078;2023-03-23T11:02:58;3.00;;;0.90;;
11100;SDS011;5604;50.722;7.078;2023-03-23T11:05:31;1.87;;;1.20;;
11100;SDS011;5604;50.722;7.078;2023-03-23T11:08:00;2.73;;;1.13;;
11100;SDS011;5604;50.722;7.078;2023-03-23T11:10:33;1.00;;;0.90;;
11100;SDS011;5604;50.722;7.078;2023-03-23T11:13:02;1.70;;;0.87;;
11100;SDS011;5604;50.722;7.078;2023-03-23T11:15:38;1.10;;;0.83;;
11100;SDS011;5604;50.722;7.078;2023-03-23T11:18:09;1.90;;;1.10;;
11100;SDS011;5604;50.722;7.078;2023-03-23T11:20:43;1.37;;;1.03;;
11100;SDS011;5604;50.722;7.078;2023-03-23T11:23:17;0.80;;;0.80;;
11100;SDS011;5604;50.722;7.078;2023-03-23T11:28:43;0.90;;;0.70;;
11100;SDS011;5604;50.722;7.078;2023-03-23T11:31:14;3.00;;;1.40;;
11100;SDS011;5604;50.722;7.078;2023-03-23T11:33:49;0.70;;;0.63;;
11100;SDS011;5604;50.722;7.078;2023-03-23T11:36:18;1.90;;;0.73;;
11100;SDS011;5604;50.722;7.078;2023-03-23T11:38:52;1.90;;;0.90;;
11100;SDS011;5604;50.722;7.078;2023-03-23T11:41:24;0.70;;;0.70;;
11100;SDS011;5604;50.722;7.078;2023-03-23T11:43:54;1.73;;;1.00;;
11100;SDS011;5604;50.722;7.078;2023-03-23T11:46:26;1.30;;;0.80;;
11100;SDS011;5604;50.722;7.078;2023-03-23T11:49:05;1.70;;;1.10;;
11100;SDS011;5604;50.722;7.078;2023-03-23T11:51:41;0.83;;;0.83;;
11100;SDS011;5604;50.722;7.078;2023-03-23T11:54:17;3.10;;;1.13;;
11100;SDS011;5604;50.722;7.078;2023-03-23T11:56:49;1.47;;;1.00;;
11100;SDS011;5604;50.722;7.078;2023-03-23T11:59:16;1.73;;;1.27;;
11100;SDS011;5604;50.722;7.078;2023-03-23T12:01:54;1.50;;;1.30;;
11100;SDS011;5604;50.722;7.078;2023-03-23T12:04:40;2.33;;;1.07;;
11100;SDS011;5604;50.722;7.078;2023-03-23T12:07:35;1.70;;;1.17;;
11100;SDS011;5604;50.722;7.078;2023-03-23T12:10:14;4.00;;;1.33;;
11100;SDS011;5604;50.722;7.078;2023-03-23T12:12:59;2.47;;;1.10;;
11100;SDS011;5604;50.722;7.078;2023-03-23T12:15:34;2.60;;;1.30;;
11100;SDS011;5604;50.722;7.078;2023-03-23T12:18:09;2.27;;;1.30;;
11100;SDS011;5604;50.722;7.078;2023-03-23T12:20:50;1.17;;;1.07;;
11100;SDS011;5604;50.722;7.078;2023-03-23T12:23:24;2.17;;;1.13;;
11100;SDS011;5604;50.722;7.078;2023-03-23T12:28:53;1.80;;;1.03;;
11100;SDS011;5604;50.722;7.078;2023-03-23T12:31:31;1.27;;;1.10;;
11100;SDS011;5604;50.722;7.078;2023-03-23T12:34:06;1.77;;;1.10;;
11100;SDS011;5604;50.722;7.078;2023-03-23T12:36:41;3.07;;;1.20;;
11100;SDS011;5604;50.722;7.078;2023-03-23T12:42:36;2.77;;;1.23;;
11100;SDS011;5604;50.722;7.078;2023-03-23T12:45:12;3.87;;;1.50;;
11100;SDS011;5604;50.722;7.078;2023-03-23T12:47:45;2.60;;;1.20;;
11100;SDS011;5604;50.722;7.078;2023-03-23T12:50:15;4.17;;;1.20;;
11100;SDS011;5604;50.722;7.078;2023-03-23T12:52:47;1.97;;;1.10;;
11100;SDS011;5604;50.722;7.078;2023-03-23T12:55:25;1.43;;;0.97;;
11100;SDS011;5604;50.722;7.078;2023-03-23T12:57:55;2.53;;;1.30;;
11100;SDS011;5604;50.722;7.078;2023-03-23T13:00:28;2.53;;;1.30;;
11100;SDS011;5604;50.722;7.078;2023-03-23T13:02:59;2.10;;;1.00;;
11100;SDS011;5604;50.722;7.078;2023-03-23T13:05:38;1.73;;;1.13;;
11100;SDS011;5604;50.722;7.078;2023-03-23T13:08:10;2.83;;;1.40;;
11100;SDS011;5604;50.722;7.078;2023-03-23T13:10:40;2.53;;;1.47;;
11100;SDS011;5604;50.722;7.078;2023-03-23T13:13:11;2.93;;;1.53;;
11100;SDS011;5604;50.722;7.078;2023-03-23T13:15:43;2.50;;;1.20;;
11100;SDS011;5604;50.722;7.078;2023-03-23T13:18:16;2.70;;;1.43;;
11100;SDS011;5604;50.722;7.078;2023-03-23T13:20:55;2.40;;;1.23;;
11100;SDS011;5604;50.722;7.078;2023-03-23T13:23:26;4.07;;;1.70;;
11100;SDS011;5604;50.722;7.078;2023-03-23T13:25:56;2.77;;;1.40;;
11100;SDS011;5604;50.722;7.078;2023-03-23T13:28:27;3.30;;;1.60;;
11100;SDS011;5604;50.722;7.078;2023-03-23T13:30:59;2.30;;;1.50;;
11100;SDS011;5604;50.722;7.078;2023-03-23T13:33:31;2.27;;;1.47;;
11100;SDS011;5604;50.722;7.078;2023-03-23T13:36:09;5.90;;;1.47;;
11100;SDS011;5604;50.722;7.078;2023-03-23T13:38:38;2.17;;;1.13;;
11100;SDS011;5604;50.722;7.078;2023-03-23T13:41:14;1.73;;;1.40;;
11100;SDS011;5604;50.722;7.078;2023-03-23T13:43:42;2.50;;;1.07;;
11100;SDS011;5604;50.722;7.078;2023-03-23T13:46:23;3.00;;;1.30;;
11100;SDS011;5604;50.722;7.078;2023-03-23T13:49:02;1.57;;;1.40;;
11100;SDS011;5604;50.722;7.078;2023-03-23T13:51:56;1.93;;;1.30;;
11100;SDS011;5604;50.722;7.078;2023-03-23T13:54:29;3.17;;;1.47;;
11100;SDS011;5604;50.722;7.078;2023-03-23T13:56:58;1.83;;;1.13;;
11100;SDS011;5604;50.722;7.078;2023-03-23T13:59:30;2.57;;;1.50;;
11100;SDS011;5604;50.722;7.078;2023-03-23T14:05:10;3.17;;;1.47;;
11100;SDS011;5604;50.722;7.078;2023-03-23T14:07:54;2.83;;;1.83;;
11100;SDS011;5604;50.722;7.078;2023-03-23T14:10:22;3.53;;;1.30;;
11100;SDS011;5604;50.722;7.078;2023-03-23T14:12:50;2.47;;;1.47;;
11100;SDS011;5604;50.722;7.078;2023-03-23T14:15:19;3.53;;;1.40;;
11100;SDS011;5604;50.722;7.078;2023-03-23T14:17:46;2.73;;;1.50;;
11100;SDS011;5604;50.722;7.078;2023-03-23T14:20:18;3.30;;;1.50;;
11100;SDS011;5604;50.722;7.078;2023-03-23T14:22:52;3.00;;;1.60;;
11100;SDS011;5604;50.722;7.078;2023-03-23T14:25:22;1.57;;;1.20;;
11100;SDS011;5604;50.722;7.078;2023-03-23T14:27:53;2.80;;;1.43;;
11100;SDS011;5604;50.722;7.078;2023-03-23T14:30:23;4.07;;;1.47;;
11100;SDS011;5604;50.722;7.078;2023-03-23T14:32:52;2.43;;;1.50;;
11100;SDS011;5604;50.722;7.078;2023-03-23T14:35:37;2.30;;;1.40;;
11100;SDS011;5604;50.722;7.078;2023-03-23T14:38:09;3.30;;;1.60;;
11100;SDS011;5604;50.722;7.078;2023-03-23T14:40:38;2.67;;;1.30;;
11100;SDS011;5604;50.722;7.078;2023-03-23T14:43:05;3.27;;;1.40;;
11100;SDS011;5604;50.722;7.078;2023-03-23T14:45:32;1.70;;;1.20;;
11100;SDS011;5604;50.722;7.078;2023-03-23T14:48:00;1.73;;;1.60;;
11100;SDS011;5604;50.722;7.078;2023-03-23T14:50:30;2.13;;;1.30;;
11100;SDS011;5604;50.722;7.078;2023-03-23T14:53:09;5.17;;;1.50;;
11100;SDS011;5604;50.722;7.078;2023-03-23T14:55:41;1.67;;;1.10;;
11100;SDS011;5604;50.722;7.078;2023-03-23T14:58:11;3.13;;;1.60;;
11100;SDS011;5604;50.722;7.078;2023-03-23T15:00:41;2.27;;;1.47;;
11100;SDS011;5604;50.722;7.078;2023-03-23T15:03:12;2.60;;;1.57;;
11100;SDS011;5604;50.722;7.078;2023-03-23T15:05:42;3.53;;;1.67;;
11100;SDS011;5604;50.722;7.078;2023-03-23T15:08:14;4.17;;;1.93;;
11100;SDS011;5604;50.722;7.078;2023-03-23T15:10:50;2.13;;;1.33;;
11100;SDS011;5604;50.722;7.078;2023-03-23T15:13:18;2.37;;;1.17;;
11100;SDS011;5604;50.722;7.078;2023-03-23T15:15:45;3.87;;;1.70;;
11100;SDS011;5604;50.722;7.078;2023-03-23T15:18:18;3.60;;;1.53;;
11100;SDS011;5604;50.722;7.078;2023-03-23T15:20:53;1.60;;;1.23;;
11100;SDS011;5604;50.722;7.078;2023-03-23T15:23:25;2.60;;;1.40;;
11100;SDS011;5604;50.722;7.078;2023-03-23T15:25:54;4.57;;;1.70;;
11100;SDS011;5604;50.722;7.078;2023-03-23T15:28:22;2.07;;;1.40;;
11100;SDS011;5604;50.722;7.078;2023-03-23T15:30:55;3.57;;;1.50;;
11100;SDS011;5604;50.722;7.078;2023-03-23T15:33:24;3.63;;;1.37;;
11100;SDS011;5604;50.722;7.078;2023-03-23T15:35:53;2.40;;;1.20;;
11100;SDS011;5604;50.722;7.078;2023-03-23T15:38:23;3.07;;;1.80;;
11100;SDS011;5604;50.722;7.078;2023-03-23T15:40:52;3.73;;;1.70;;
11100;SDS011;5604;50.722;7.078;2023-03-23T15:43:21;3.93;;;1.50;;
11100;SDS011;5604;50.722;7.078;2023-03-23T15:45:53;2.83;;;1.43;;
11100;SDS011;5604;50.722;7.078;2023-03-23T15:48:24;3.23;;;1.50;;
11100;SDS011;5604;50.722;7.078;2023-03-23T15:50:51;4.93;;;1.67;;